SLVR/VVI METAR and TAF weather

Enter ICAO airport designator
Station Type Date Time Source
SLVR METAR 2020/09/22 20:00 UTC NOAA

SLVR 222000Z 15006KT 9999 NSC 29/08 Q1014


Station Type Date Time Source
SLVR Decoded METAR 2020/09/22 20:00 UTC NOAA

Viru-Viru, Bolivia (SLVR) 17-38S 063-08W
Sep 22, 2020 - 04:00 PM EDT / 2020.09.22 2000 UTC
Wind: from the SSE (150 degrees) at 7 MPH (6 KT):0
Visibility: greater than 7 mile(s):0
Temperature: 84 F (29 C)
Dew Point: 46 F (8 C)
Relative Humidity: 26%
Pressure (altimeter): 29.94 in. Hg (1014 hPa)
ob: SLVR 222000Z 15006KT 9999 NSC 29/08 Q1014
cycle: 20

Station Type Date Time Source
SLVR TAF 2020/09/22 18:31 UTC NOAA

TAF SLVR 221610Z 2218/2318 15005KT 9999 SCT070 TX29/2219Z TN17/2310Z
BECMG 2223/2301 VRB02KT NSC
BECMG 2315/2318 34008KT

Example: see airport list